sensor_id;sensor_type;location;lat;lon;timestamp;pressure;altitude;pressure_sealevel;temperature;humidity
73220;BME280;61434;43.538;-5.688;2022-12-10T00:00:34;100883.31;;;11.87;69.58
73220;BME280;61434;43.538;-5.688;2022-12-10T00:03:00;100883.63;;;11.72;69.84
73220;BME280;61434;43.538;-5.688;2022-12-10T00:05:26;100877.78;;;11.67;70.01
73220;BME280;61434;43.538;-5.688;2022-12-10T00:07:52;100880.03;;;11.62;70.41
73220;BME280;61434;43.538;-5.688;2022-12-10T00:10:17;100885.03;;;11.67;70.50
73220;BME280;61434;43.538;-5.688;2022-12-10T00:12:43;100880.03;;;11.62;70.70
73220;BME280;61434;43.538;-5.688;2022-12-10T00:15:09;100893.31;;;11.75;70.52
73220;BME280;61434;43.538;-5.688;2022-12-10T00:17:34;100882.53;;;11.54;70.21
73220;BME280;61434;43.538;-5.688;2022-12-10T00:20:00;100879.03;;;11.63;69.70
73220;BME280;61434;43.538;-5.688;2022-12-10T00:22:25;100889.38;;;11.58;70.45
73220;BME280;61434;43.538;-5.688;2022-12-10T00:24:51;100891.88;;;11.71;69.90
73220;BME280;61434;43.538;-5.688;2022-12-10T00:27:16;100893.13;;;11.67;69.74
73220;BME280;61434;43.538;-5.688;2022-12-10T00:29:42;100891.50;;;11.54;69.90
73220;BME280;61434;43.538;-5.688;2022-12-10T00:32:07;100889.19;;;11.71;70.28
73220;BME280;61434;43.538;-5.688;2022-12-10T00:34:34;100890.44;;;11.67;70.24
73220;BME280;61434;43.538;-5.688;2022-12-10T00:36:59;100894.63;;;11.80;69.71
73220;BME280;61434;43.538;-5.688;2022-12-10T00:39:25;100898.25;;;11.91;69.21
73220;BME280;61434;43.538;-5.688;2022-12-10T00:41:50;100899.66;;;11.85;69.35
73220;BME280;61434;43.538;-5.688;2022-12-10T00:44:16;100899.72;;;11.74;69.24
73220;BME280;61434;43.538;-5.688;2022-12-10T00:46:42;100909.59;;;11.43;70.28
73220;BME280;61434;43.538;-5.688;2022-12-10T00:49:08;100910.81;;;11.50;69.44
73220;BME280;61434;43.538;-5.688;2022-12-10T00:51:33;100898.34;;;11.59;69.07
73220;BME280;61434;43.538;-5.688;2022-12-10T00:53:59;100902.63;;;11.61;69.55
73220;BME280;61434;43.538;-5.688;2022-12-10T00:56:27;100901.47;;;11.64;69.30
73220;BME280;61434;43.538;-5.688;2022-12-10T00:58:53;100898.41;;;11.47;69.32
73220;BME280;61434;43.538;-5.688;2022-12-10T01:03:47;100892.53;;;11.63;69.71
73220;BME280;61434;43.538;-5.688;2022-12-10T01:06:30;100891.97;;;11.60;69.75
73220;BME280;61434;43.538;-5.688;2022-12-10T01:08:59;100888.78;;;11.54;69.22
73220;BME280;61434;43.538;-5.688;2022-12-10T01:11:30;100899.19;;;11.59;68.90
73220;BME280;61434;43.538;-5.688;2022-12-10T01:13:56;100905.16;;;11.63;68.86
73220;BME280;61434;43.538;-5.688;2022-12-10T01:16:22;100903.53;;;11.71;67.76
73220;BME280;61434;43.538;-5.688;2022-12-10T01:18:48;100905.41;;;11.50;68.87
73220;BME280;61434;43.538;-5.688;2022-12-10T01:21:18;100916.44;;;11.47;70.01
73220;BME280;61434;43.538;-5.688;2022-12-10T01:23:45;100913.22;;;11.53;70.16
73220;BME280;61434;43.538;-5.688;2022-12-10T01:26:14;100928.84;;;11.59;71.00
73220;BME280;61434;43.538;-5.688;2022-12-10T01:28:41;100915.69;;;11.45;70.34
73220;BME280;61434;43.538;-5.688;2022-12-10T01:31:11;100922.53;;;11.49;70.35
73220;BME280;61434;43.538;-5.688;2022-12-10T01:33:37;100926.78;;;11.42;70.73
73220;BME280;61434;43.538;-5.688;2022-12-10T01:36:06;100917.75;;;11.52;70.21
73220;BME280;61434;43.538;-5.688;2022-12-10T01:38:31;100919.13;;;11.47;69.48
73220;BME280;61434;43.538;-5.688;2022-12-10T01:40:58;100927.91;;;11.60;69.75
73220;BME280;61434;43.538;-5.688;2022-12-10T01:43:24;100927.56;;;11.74;68.51
73220;BME280;61434;43.538;-5.688;2022-12-10T01:45:50;100940.63;;;11.58;69.21
73220;BME280;61434;43.538;-5.688;2022-12-10T01:48:15;100943.88;;;11.52;69.74
73220;BME280;61434;43.538;-5.688;2022-12-10T01:50:41;100941.19;;;11.52;69.54
73220;BME280;61434;43.538;-5.688;2022-12-10T01:53:07;100946.44;;;11.33;71.48
73220;BME280;61434;43.538;-5.688;2022-12-10T01:55:51;100943.22;;;11.39;71.76
73220;BME280;61434;43.538;-5.688;2022-12-10T01:58:18;100946.31;;;11.55;70.99
73220;BME280;61434;43.538;-5.688;2022-12-10T02:06:21;100972.34;;;11.45;69.69
73220;BME280;61434;43.538;-5.688;2022-12-10T02:09:14;100973.34;;;11.44;71.33
73220;BME280;61434;43.538;-5.688;2022-12-10T02:12:46;100977.19;;;11.30;70.58
73220;BME280;61434;43.538;-5.688;2022-12-10T02:15:17;100980.50;;;11.34;71.11
73220;BME280;61434;43.538;-5.688;2022-12-10T02:17:52;100987.09;;;11.41;70.88
73220;BME280;61434;43.538;-5.688;2022-12-10T02:23:00;101001.63;;;11.49;71.00
73220;BME280;61434;43.538;-5.688;2022-12-10T02:25:54;101008.47;;;11.53;70.43
73220;BME280;61434;43.538;-5.688;2022-12-10T02:31:05;101008.69;;;11.41;70.55
73220;BME280;61434;43.538;-5.688;2022-12-10T02:33:35;101006.94;;;11.40;71.59
73220;BME280;61434;43.538;-5.688;2022-12-10T02:36:03;101013.47;;;11.37;71.37
73220;BME280;61434;43.538;-5.688;2022-12-10T02:38:32;101011.63;;;11.38;70.94
73220;BME280;61434;43.538;-5.688;2022-12-10T02:41:04;101020.44;;;11.40;71.26
73220;BME280;61434;43.538;-5.688;2022-12-10T02:43:31;101020.19;;;11.43;71.12
73220;BME280;61434;43.538;-5.688;2022-12-10T02:45:58;101020.50;;;11.49;71.63
73220;BME280;61434;43.538;-5.688;2022-12-10T02:48:26;101019.25;;;11.33;72.24
73220;BME280;61434;43.538;-5.688;2022-12-10T02:50:52;101020.84;;;11.56;71.31
73220;BME280;61434;43.538;-5.688;2022-12-10T02:53:17;101032.13;;;11.29;72.40
73220;BME280;61434;43.538;-5.688;2022-12-10T02:56:11;101024.41;;;11.36;72.18
73220;BME280;61434;43.538;-5.688;2022-12-10T03:04:04;101027.94;;;11.36;71.53
73220;BME280;61434;43.538;-5.688;2022-12-10T03:06:38;101023.00;;;11.41;71.52
73220;BME280;61434;43.538;-5.688;2022-12-10T03:09:11;101022.06;;;11.31;73.08
73220;BME280;61434;43.538;-5.688;2022-12-10T03:11:39;101020.34;;;11.30;72.57
73220;BME280;61434;43.538;-5.688;2022-12-10T03:14:20;101017.44;;;11.22;73.05
73220;BME280;61434;43.538;-5.688;2022-12-10T03:16:54;101022.75;;;11.12;73.74
73220;BME280;61434;43.538;-5.688;2022-12-10T03:19:25;101028.25;;;11.22;73.98
73220;BME280;61434;43.538;-5.688;2022-12-10T03:21:53;101030.31;;;11.18;74.23
73220;BME280;61434;43.538;-5.688;2022-12-10T03:24:20;101031.09;;;11.09;74.07
73220;BME280;61434;43.538;-5.688;2022-12-10T03:26:48;101031.69;;;11.13;74.18
73220;BME280;61434;43.538;-5.688;2022-12-10T03:29:24;101027.56;;;11.29;73.15
73220;BME280;61434;43.538;-5.688;2022-12-10T03:31:52;101027.50;;;11.20;73.51
73220;BME280;61434;43.538;-5.688;2022-12-10T03:34:18;101025.25;;;11.25;73.34
73220;BME280;61434;43.538;-5.688;2022-12-10T03:36:45;101029.59;;;11.16;73.43
73220;BME280;61434;43.538;-5.688;2022-12-10T03:39:11;101023.69;;;11.22;72.36
73220;BME280;61434;43.538;-5.688;2022-12-10T03:41:37;101025.94;;;11.06;72.91
73220;BME280;61434;43.538;-5.688;2022-12-10T03:44:03;101021.47;;;11.27;72.79
73220;BME280;61434;43.538;-5.688;2022-12-10T03:46:30;101021.59;;;11.26;72.75
73220;BME280;61434;43.538;-5.688;2022-12-10T03:48:57;101030.09;;;11.21;73.17
73220;BME280;61434;43.538;-5.688;2022-12-10T03:51:23;101019.16;;;11.23;72.86
73220;BME280;61434;43.538;-5.688;2022-12-10T03:53:48;101023.09;;;11.19;72.39
73220;BME280;61434;43.538;-5.688;2022-12-10T03:56:15;101026.91;;;11.16;73.64
73220;BME280;61434;43.538;-5.688;2022-12-10T03:58:40;101026.31;;;11.13;73.02
73220;BME280;61434;43.538;-5.688;2022-12-10T04:01:06;101025.66;;;11.20;73.36
73220;BME280;61434;43.538;-5.688;2022-12-10T04:03:38;101025.31;;;11.14;73.90
73220;BME280;61434;43.538;-5.688;2022-12-10T04:06:06;101030.59;;;11.04;73.57
73220;BME280;61434;43.538;-5.688;2022-12-10T04:08:31;101028.16;;;11.12;74.32
73220;BME280;61434;43.538;-5.688;2022-12-10T04:11:08;101023.00;;;11.09;73.96
73220;BME280;61434;43.538;-5.688;2022-12-10T04:13:35;101020.34;;;10.87;73.87
73220;BME280;61434;43.538;-5.688;2022-12-10T04:16:20;101017.28;;;10.91;74.08
73220;BME280;61434;43.538;-5.688;2022-12-10T04:18:57;101015.66;;;11.00;73.91
73220;BME280;61434;43.538;-5.688;2022-12-10T04:21:24;101023.31;;;10.84;73.70
73220;BME280;61434;43.538;-5.688;2022-12-10T04:24:09;101027.69;;;10.96;73.93
73220;BME280;61434;43.538;-5.688;2022-12-10T04:26:55;101020.72;;;10.82;74.80
73220;BME280;61434;43.538;-5.688;2022-12-10T04:29:25;101029.19;;;10.77;75.33
73220;BME280;61434;43.538;-5.688;2022-12-10T04:31:51;101025.41;;;10.80;75.48
73220;BME280;61434;43.538;-5.688;2022-12-10T04:34:17;101033.13;;;10.73;74.94
73220;BME280;61434;43.538;-5.688;2022-12-10T04:36:43;101030.66;;;10.82;74.91
73220;BME280;61434;43.538;-5.688;2022-12-10T04:39:08;101021.25;;;10.65;76.23
73220;BME280;61434;43.538;-5.688;2022-12-10T04:41:37;101025.66;;;10.43;76.39
73220;BME280;61434;43.538;-5.688;2022-12-10T04:44:04;101027.00;;;10.60;76.44
73220;BME280;61434;43.538;-5.688;2022-12-10T04:46:29;101025.41;;;10.58;76.26
73220;BME280;61434;43.538;-5.688;2022-12-10T04:48:55;101021.34;;;10.63;76.31
73220;BME280;61434;43.538;-5.688;2022-12-10T04:51:20;101023.94;;;10.53;76.81
73220;BME280;61434;43.538;-5.688;2022-12-10T04:53:46;101025.78;;;10.53;76.96
73220;BME280;61434;43.538;-5.688;2022-12-10T04:56:11;101026.16;;;10.37;77.63
73220;BME280;61434;43.538;-5.688;2022-12-10T04:58:36;101032.03;;;10.42;77.39
73220;BME280;61434;43.538;-5.688;2022-12-10T05:01:07;101036.81;;;10.50;77.41
73220;BME280;61434;43.538;-5.688;2022-12-10T05:03:34;101046.63;;;10.40;77.03
73220;BME280;61434;43.538;-5.688;2022-12-10T05:06:04;101053.22;;;10.36;77.33
73220;BME280;61434;43.538;-5.688;2022-12-10T05:08:31;101042.19;;;10.39;77.00
73220;BME280;61434;43.538;-5.688;2022-12-10T05:11:05;101045.13;;;10.24;77.31
73220;BME280;61434;43.538;-5.688;2022-12-10T05:13:31;101039.72;;;10.24;77.48
73220;BME280;61434;43.538;-5.688;2022-12-10T05:15:57;101040.06;;;10.20;77.21
73220;BME280;61434;43.538;-5.688;2022-12-10T05:18:22;101041.09;;;10.30;76.92
73220;BME280;61434;43.538;-5.688;2022-12-10T05:20:48;101048.13;;;10.20;76.71
73220;BME280;61434;43.538;-5.688;2022-12-10T05:23:14;101046.28;;;10.20;76.48
73220;BME280;61434;43.538;-5.688;2022-12-10T05:28:42;101066.41;;;10.27;76.22
73220;BME280;61434;43.538;-5.688;2022-12-10T05:31:22;101067.41;;;10.26;76.03
73220;BME280;61434;43.538;-5.688;2022-12-10T05:33:48;101071.28;;;10.11;76.68
73220;BME280;61434;43.538;-5.688;2022-12-10T05:36:16;101072.63;;;10.17;76.67
73220;BME280;61434;43.538;-5.688;2022-12-10T05:38:42;101074.41;;;10.05;76.66
73220;BME280;61434;43.538;-5.688;2022-12-10T05:41:16;101071.13;;;10.13;76.86
73220;BME280;61434;43.538;-5.688;2022-12-10T05:43:42;101065.00;;;10.11;76.97
73220;BME280;61434;43.538;-5.688;2022-12-10T05:46:14;101065.97;;;10.10;76.71
73220;BME280;61434;43.538;-5.688;2022-12-10T05:48:40;101062.16;;;9.90;76.98
73220;BME280;61434;43.538;-5.688;2022-12-10T05:51:11;101064.41;;;10.07;77.14
73220;BME280;61434;43.538;-5.688;2022-12-10T05:53:37;101064.28;;;10.09;76.68
73220;BME280;61434;43.538;-5.688;2022-12-10T05:56:08;101071.38;;;10.10;76.64
73220;BME280;61434;43.538;-5.688;2022-12-10T05:58:35;101082.13;;;9.98;76.74
73220;BME280;61434;43.538;-5.688;2022-12-10T06:01:06;101062.06;;;10.02;76.66
73220;BME280;61434;43.538;-5.688;2022-12-10T06:03:32;101065.84;;;10.00;76.20
73220;BME280;61434;43.538;-5.688;2022-12-10T06:05:57;101076.88;;;9.97;76.57
73220;BME280;61434;43.538;-5.688;2022-12-10T06:08:22;101071.06;;;9.90;76.53
73220;BME280;61434;43.538;-5.688;2022-12-10T06:10:48;101076.88;;;9.97;76.46
73220;BME280;61434;43.538;-5.688;2022-12-10T06:13:13;101076.97;;;9.95;76.47
73220;BME280;61434;43.538;-5.688;2022-12-10T06:15:40;101090.22;;;9.74;76.32
73220;BME280;61434;43.538;-5.688;2022-12-10T06:18:06;101086.50;;;9.88;76.20
73220;BME280;61434;43.538;-5.688;2022-12-10T06:20:32;101084.44;;;9.92;75.92
73220;BME280;61434;43.538;-5.688;2022-12-10T06:22:57;101085.16;;;9.94;76.10
73220;BME280;61434;43.538;-5.688;2022-12-10T06:25:23;101084.28;;;9.82;75.85
73220;BME280;61434;43.538;-5.688;2022-12-10T06:27:48;101090.03;;;9.89;76.23
73220;BME280;61434;43.538;-5.688;2022-12-10T06:30:14;101088.56;;;9.85;76.26
73220;BME280;61434;43.538;-5.688;2022-12-10T06:32:39;101086.72;;;9.85;76.46
73220;BME280;61434;43.538;-5.688;2022-12-10T06:35:05;101084.94;;;9.97;76.23
73220;BME280;61434;43.538;-5.688;2022-12-10T06:37:31;101087.16;;;10.03;75.61
73220;BME280;61434;43.538;-5.688;2022-12-10T06:39:56;101087.84;;;9.94;75.64
73220;BME280;61434;43.538;-5.688;2022-12-10T06:42:22;101092.00;;;9.63;76.36
73220;BME280;61434;43.538;-5.688;2022-12-10T06:44:47;101090.09;;;9.76;76.18
73220;BME280;61434;43.538;-5.688;2022-12-10T06:47:13;101086.59;;;9.87;76.25
73220;BME280;61434;43.538;-5.688;2022-12-10T06:49:40;101082.78;;;9.78;76.84
73220;BME280;61434;43.538;-5.688;2022-12-10T06:52:06;101075.94;;;9.74;76.93
73220;BME280;61434;43.538;-5.688;2022-12-10T06:54:32;101081.94;;;9.77;77.21
73220;BME280;61434;43.538;-5.688;2022-12-10T06:56:57;101077.31;;;9.91;76.58
73220;BME280;61434;43.538;-5.688;2022-12-10T06:59:23;101084.44;;;9.92;75.87
73220;BME280;61434;43.538;-5.688;2022-12-10T07:01:49;101086.84;;;9.84;76.29
73220;BME280;61434;43.538;-5.688;2022-12-10T07:04:15;101088.06;;;9.91;76.90
73220;BME280;61434;43.538;-5.688;2022-12-10T07:06:40;101104.47;;;9.88;76.59
73220;BME280;61434;43.538;-5.688;2022-12-10T07:09:06;101109.66;;;10.02;75.97
73220;BME280;61434;43.538;-5.688;2022-12-10T07:11:31;101120.78;;;9.97;76.05
73220;BME280;61434;43.538;-5.688;2022-12-10T07:13:58;101133.31;;;9.86;75.99
73220;BME280;61434;43.538;-5.688;2022-12-10T07:16:28;101127.41;;;9.81;75.67
73220;BME280;61434;43.538;-5.688;2022-12-10T07:18:55;101134.50;;;9.82;76.35
73220;BME280;61434;43.538;-5.688;2022-12-10T07:21:34;101152.09;;;9.74;76.26
73220;BME280;61434;43.538;-5.688;2022-12-10T07:24:03;101149.56;;;9.84;75.89
73220;BME280;61434;43.538;-5.688;2022-12-10T07:26:31;101156.66;;;9.85;76.45
73220;BME280;61434;43.538;-5.688;2022-12-10T07:28:58;101161.81;;;9.88;76.51
73220;BME280;61434;43.538;-5.688;2022-12-10T07:31:25;101170.47;;;9.81;76.11
73220;BME280;61434;43.538;-5.688;2022-12-10T07:33:52;101166.63;;;9.72;76.35
73220;BME280;61434;43.538;-5.688;2022-12-10T07:36:19;101168.41;;;9.84;76.26
73220;BME280;61434;43.538;-5.688;2022-12-10T07:38:45;101172.81;;;9.85;76.59
73220;BME280;61434;43.538;-5.688;2022-12-10T07:41:13;101174.13;;;9.80;76.01
73220;BME280;61434;43.538;-5.688;2022-12-10T07:43:40;101189.00;;;9.72;76.20
73220;BME280;61434;43.538;-5.688;2022-12-10T07:46:09;101189.75;;;9.74;76.17
73220;BME280;61434;43.538;-5.688;2022-12-10T07:48:36;101191.81;;;9.95;75.38
73220;BME280;61434;43.538;-5.688;2022-12-10T07:51:02;101192.31;;;9.76;75.54
73220;BME280;61434;43.538;-5.688;2022-12-10T07:53:28;101179.69;;;9.89;75.54
73220;BME280;61434;43.538;-5.688;2022-12-10T07:55:54;101179.16;;;9.60;75.67
73220;BME280;61434;43.538;-5.688;2022-12-10T07:58:19;101185.44;;;9.48;76.04
73220;BME280;61434;43.538;-5.688;2022-12-10T08:00:45;101180.19;;;9.46;75.73
73220;BME280;61434;43.538;-5.688;2022-12-10T08:03:10;101180.19;;;9.70;75.49
73220;BME280;61434;43.538;-5.688;2022-12-10T08:05:36;101182.41;;;9.76;74.49
73220;BME280;61434;43.538;-5.688;2022-12-10T08:08:01;101186.56;;;9.69;73.94
73220;BME280;61434;43.538;-5.688;2022-12-10T08:10:27;101179.28;;;9.59;75.30
73220;BME280;61434;43.538;-5.688;2022-12-10T08:12:52;101181.19;;;9.69;74.19
73220;BME280;61434;43.538;-5.688;2022-12-10T08:15:18;101176.25;;;9.63;74.18
73220;BME280;61434;43.538;-5.688;2022-12-10T08:17:43;101177.63;;;9.45;74.41
73220;BME280;61434;43.538;-5.688;2022-12-10T08:20:09;101181.97;;;9.22;75.29
73220;BME280;61434;43.538;-5.688;2022-12-10T08:22:34;101185.03;;;9.41;75.56
73220;BME280;61434;43.538;-5.688;2022-12-10T08:25:01;101186.00;;;9.40;75.04
73220;BME280;61434;43.538;-5.688;2022-12-10T08:27:26;101187.78;;;9.52;75.03
73220;BME280;61434;43.538;-5.688;2022-12-10T08:29:52;101196.88;;;9.63;74.66
73220;BME280;61434;43.538;-5.688;2022-12-10T08:32:17;101196.03;;;9.62;74.45
73220;BME280;61434;43.538;-5.688;2022-12-10T08:34:43;101194.09;;;9.64;73.53
73220;BME280;61434;43.538;-5.688;2022-12-10T08:37:09;101193.34;;;9.62;73.37
73220;BME280;61434;43.538;-5.688;2022-12-10T08:39:34;101191.00;;;9.58;73.77
73220;BME280;61434;43.538;-5.688;2022-12-10T08:42:00;101192.22;;;9.77;73.33
73220;BME280;61434;43.538;-5.688;2022-12-10T08:44:25;101203.03;;;9.89;73.83
73220;BME280;61434;43.538;-5.688;2022-12-10T08:46:51;101205.69;;;9.77;73.45
73220;BME280;61434;43.538;-5.688;2022-12-10T08:49:16;101201.03;;;9.80;73.57
73220;BME280;61434;43.538;-5.688;2022-12-10T08:51:42;101204.78;;;10.01;72.86
73220;BME280;61434;43.538;-5.688;2022-12-10T08:54:07;101199.06;;;10.06;72.46
73220;BME280;61434;43.538;-5.688;2022-12-10T08:56:33;101199.53;;;9.75;72.72
73220;BME280;61434;43.538;-5.688;2022-12-10T08:58:58;101199.25;;;9.91;73.03
73220;BME280;61434;43.538;-5.688;2022-12-10T09:01:24;101200.16;;;10.03;72.54
73220;BME280;61434;43.538;-5.688;2022-12-10T09:03:49;101209.03;;;10.16;72.19
73220;BME280;61434;43.538;-5.688;2022-12-10T09:06:17;101209.09;;;10.27;71.79
73220;BME280;61434;43.538;-5.688;2022-12-10T09:08:44;101202.25;;;10.11;71.34
73220;BME280;61434;43.538;-5.688;2022-12-10T09:11:13;101200.97;;;10.16;71.06
73220;BME280;61434;43.538;-5.688;2022-12-10T09:13:39;101207.19;;;10.41;70.65
73220;BME280;61434;43.538;-5.688;2022-12-10T09:16:04;101214.28;;;10.42;70.28
73220;BME280;61434;43.538;-5.688;2022-12-10T09:18:30;101217.19;;;10.27;70.54
73220;BME280;61434;43.538;-5.688;2022-12-10T09:20:56;101203.72;;;10.27;71.12
73220;BME280;61434;43.538;-5.688;2022-12-10T09:23:21;101215.44;;;10.62;69.92
73220;BME280;61434;43.538;-5.688;2022-12-10T09:25:47;101219.03;;;10.73;69.87
73220;BME280;61434;43.538;-5.688;2022-12-10T09:28:12;101219.75;;;10.75;69.54
73220;BME280;61434;43.538;-5.688;2022-12-10T09:30:38;101219.78;;;14.52;61.19
73220;BME280;61434;43.538;-5.688;2022-12-10T09:33:03;101215.75;;;19.65;45.03
73220;BME280;61434;43.538;-5.688;2022-12-10T09:35:29;61621.03;;;-144.32;100.00
73220;BME280;61434;43.538;-5.688;2022-12-10T09:37:57;61621.03;;;-144.32;100.00
73220;BME280;61434;43.538;-5.688;2022-12-10T09:40:40;61621.03;;;-144.32;100.00
73220;BME280;61434;43.538;-5.688;2022-12-10T09:43:19;61621.03;;;-144.32;100.00
73220;BME280;61434;43.538;-5.688;2022-12-10T09:51:09;61621.03;;;-144.32;100.00
73220;BME280;61434;43.538;-5.688;2022-12-10T09:53:37;61621.03;;;-144.32;100.00
73220;BME280;61434;43.538;-5.688;2022-12-10T09:56:03;61621.03;;;-144.32;100.00
73220;BME280;61434;43.538;-5.688;2022-12-10T09:58:29;101221.53;;;26.67;28.28
73220;BME280;61434;43.538;-5.688;2022-12-10T10:01:03;101217.53;;;25.41;30.09
73220;BME280;61434;43.538;-5.688;2022-12-10T10:03:38;61621.03;;;-144.32;100.00
73220;BME280;61434;43.538;-5.688;2022-12-10T10:06:04;61621.03;;;-144.32;100.00
73220;BME280;61434;43.538;-5.688;2022-12-10T10:08:55;61621.03;;;-144.32;100.00
73220;BME280;61434;43.538;-5.688;2022-12-10T10:11:25;61621.03;;;-144.32;100.00
73220;BME280;61434;43.538;-5.688;2022-12-10T10:13:58;61621.03;;;-144.32;100.00
73220;BME280;61434;43.538;-5.688;2022-12-10T10:16:27;61621.03;;;-144.32;100.00
73220;BME280;61434;43.538;-5.688;2022-12-10T10:19:01;61621.03;;;-144.32;100.00
73220;BME280;61434;43.538;-5.688;2022-12-10T10:21:28;61621.03;;;-144.32;100.00
73220;BME280;61434;43.538;-5.688;2022-12-10T10:23:55;61621.03;;;-144.32;100.00
73220;BME280;61434;43.538;-5.688;2022-12-10T10:26:26;61621.03;;;-144.32;100.00
73220;BME280;61434;43.538;-5.688;2022-12-10T10:28:59;61621.03;;;-144.32;100.00
73220;BME280;61434;43.538;-5.688;2022-12-10T10:31:28;61621.03;;;-144.32;100.00
73220;BME280;61434;43.538;-5.688;2022-12-10T10:33:56;101217.81;;;21.30;35.62
73220;BME280;61434;43.538;-5.688;2022-12-10T10:36:27;101213.28;;;20.01;39.13
73220;BME280;61434;43.538;-5.688;2022-12-10T10:38:53;101229.59;;;18.51;42.02
73220;BME280;61434;43.538;-5.688;2022-12-10T10:41:19;101215.34;;;17.74;43.78
73220;BME280;61434;43.538;-5.688;2022-12-10T10:43:45;101222.22;;;17.17;44.99
73220;BME280;61434;43.538;-5.688;2022-12-10T10:48:38;101211.41;;;16.38;47.04
73220;BME280;61434;43.538;-5.688;2022-12-10T10:53:56;101206.56;;;15.51;46.23
73220;BME280;61434;43.538;-5.688;2022-12-10T10:56:27;101210.31;;;15.12;47.41
73220;BME280;61434;43.538;-5.688;2022-12-10T10:59:20;101206.09;;;15.00;46.85
73220;BME280;61434;43.538;-5.688;2022-12-10T11:01:54;101205.97;;;14.92;47.98
73220;BME280;61434;43.538;-5.688;2022-12-10T11:04:28;101204.00;;;14.75;48.25
73220;BME280;61434;43.538;-5.688;2022-12-10T11:06:55;101199.72;;;14.82;48.22
73220;BME280;61434;43.538;-5.688;2022-12-10T11:09:28;101197.19;;;14.32;48.39
73220;BME280;61434;43.538;-5.688;2022-12-10T11:12:21;101192.78;;;13.82;49.79
73220;BME280;61434;43.538;-5.688;2022-12-10T11:14:47;101187.34;;;14.41;49.39
73220;BME280;61434;43.538;-5.688;2022-12-10T11:22:24;61621.03;;;-144.32;100.00
73220;BME280;61434;43.538;-5.688;2022-12-10T11:24:50;61621.03;;;-144.32;100.00
73220;BME280;61434;43.538;-5.688;2022-12-10T11:38:32;101150.16;;;14.23;51.59
73220;BME280;61434;43.538;-5.688;2022-12-10T11:43:56;101159.69;;;13.79;51.53
73220;BME280;61434;43.538;-5.688;2022-12-10T11:46:52;101153.59;;;13.77;50.72
73220;BME280;61434;43.538;-5.688;2022-12-10T11:49:52;101148.88;;;13.89;50.11
73220;BME280;61434;43.538;-5.688;2022-12-10T11:55:24;101139.69;;;13.41;51.84
73220;BME280;61434;43.538;-5.688;2022-12-10T12:00:42;101134.63;;;13.67;51.33
73220;BME280;61434;43.538;-5.688;2022-12-10T12:06:19;101122.78;;;13.68;52.13
73220;BME280;61434;43.538;-5.688;2022-12-10T12:08:56;101123.53;;;13.70;51.61
73220;BME280;61434;43.538;-5.688;2022-12-10T12:20:03;101125.25;;;13.71;52.18
73220;BME280;61434;43.538;-5.688;2022-12-10T12:22:34;101124.50;;;13.59;51.74
73220;BME280;61434;43.538;-5.688;2022-12-10T12:25:22;101126.25;;;13.70;52.67
73220;BME280;61434;43.538;-5.688;2022-12-10T12:27:52;101115.94;;;13.64;51.67
73220;BME280;61434;43.538;-5.688;2022-12-10T12:30:22;101112.56;;;13.72;52.36
73220;BME280;61434;43.538;-5.688;2022-12-10T12:33:09;101115.09;;;13.73;50.71
73220;BME280;61434;43.538;-5.688;2022-12-10T12:35:42;101105.09;;;13.45;50.08
73220;BME280;61434;43.538;-5.688;2022-12-10T12:40:43;101098.56;;;13.38;51.24
73220;BME280;61434;43.538;-5.688;2022-12-10T12:43:16;101087.75;;;13.38;51.92
73220;BME280;61434;43.538;-5.688;2022-12-10T12:45:48;101087.88;;;13.46;52.15
73220;BME280;61434;43.538;-5.688;2022-12-10T12:48:16;101083.63;;;13.63;51.79
73220;BME280;61434;43.538;-5.688;2022-12-10T12:50:48;101082.34;;;13.57;51.97
73220;BME280;61434;43.538;-5.688;2022-12-10T12:53:17;101086.06;;;13.75;52.15
73220;BME280;61434;43.538;-5.688;2022-12-10T12:58:33;101078.47;;;13.79;50.80
73220;BME280;61434;43.538;-5.688;2022-12-10T13:01:37;101073.63;;;13.44;51.27
73220;BME280;61434;43.538;-5.688;2022-12-10T13:04:06;101084.88;;;13.29;52.21
73220;BME280;61434;43.538;-5.688;2022-12-10T13:06:37;101082.53;;;13.15;52.58
73220;BME280;61434;43.538;-5.688;2022-12-10T13:14:33;101063.00;;;13.12;51.94
73220;BME280;61434;43.538;-5.688;2022-12-10T13:17:27;101067.13;;;13.06;51.56
73220;BME280;61434;43.538;-5.688;2022-12-10T13:19:53;101060.25;;;12.92;52.91
73220;BME280;61434;43.538;-5.688;2022-12-10T13:22:42;101055.41;;;12.86;53.66
73220;BME280;61434;43.538;-5.688;2022-12-10T13:25:15;101048.25;;;12.66;54.48
73220;BME280;61434;43.538;-5.688;2022-12-10T13:27:42;101045.63;;;12.54;54.93
73220;BME280;61434;43.538;-5.688;2022-12-10T13:30:33;101047.84;;;12.40;54.73
73220;BME280;61434;43.538;-5.688;2022-12-10T13:35:44;101048.31;;;12.85;55.01
73220;BME280;61434;43.538;-5.688;2022-12-10T13:38:25;101049.84;;;12.78;54.20
73220;BME280;61434;43.538;-5.688;2022-12-10T13:41:01;101051.63;;;12.98;53.20
73220;BME280;61434;43.538;-5.688;2022-12-10T13:43:57;101045.38;;;13.17;53.56
73220;BME280;61434;43.538;-5.688;2022-12-10T13:47:04;101036.34;;;12.88;53.11
73220;BME280;61434;43.538;-5.688;2022-12-10T13:49:42;101034.38;;;12.90;54.02
73220;BME280;61434;43.538;-5.688;2022-12-10T13:52:21;101041.50;;;12.91;53.15
73220;BME280;61434;43.538;-5.688;2022-12-10T13:55:53;101052.91;;;13.04;52.49
73220;BME280;61434;43.538;-5.688;2022-12-10T14:00:20;101040.06;;;12.96;53.99
73220;BME280;61434;43.538;-5.688;2022-12-10T14:03:04;101028.44;;;13.05;54.17
73220;BME280;61434;43.538;-5.688;2022-12-10T14:08:24;101036.75;;;13.33;53.65
73220;BME280;61434;43.538;-5.688;2022-12-10T14:10:51;101049.69;;;13.29;53.81
73220;BME280;61434;43.538;-5.688;2022-12-10T14:13:21;101043.53;;;13.08;54.30
73220;BME280;61434;43.538;-5.688;2022-12-10T14:15:54;101063.53;;;12.86;54.35
73220;BME280;61434;43.538;-5.688;2022-12-10T14:18:21;101057.94;;;12.78;54.76
73220;BME280;61434;43.538;-5.688;2022-12-10T14:20:51;101061.34;;;12.70;54.40